Time;durP1;ratioP1;P1;durP2;ratioP2;P2;SDS_P1;SDS_P2;PMS_P1;PMS_P2;Temp;Humidity;BMP_temperature;BMP_pressure;BME280_temperature;BME280_humidity;BME280_pressure;Samples;Min_cycle;Max_cycle;Signal;HPM_P1;HPM_P2
2021/03/01 00:00:08;;;;;;;22.58;14.25;;;;;;;;;;5001318;28;20455;-84
2021/03/01 00:02:33;;;;;;;19.80;13.45;;;;;;;;;;5007873;28;20106;-84
2021/03/01 00:04:59;;;;;;;24.27;13.43;;;;;;;;;;5020154;28;20045;-84
2021/03/01 00:07:24;;;;;;;17.23;13.03;;;;;;;;;;5017428;28;20017;-84
2021/03/01 00:09:49;;;;;;;23.43;14.57;;;;;;;;;;5009297;28;20021;-82
2021/03/01 00:12:14;;;;;;;19.95;14.00;;;;;;;;;;5000275;28;20018;-82
2021/03/01 00:14:39;;;;;;;21.60;14.13;;;;;;;;;;5014150;28;20032;-82
2021/03/01 00:17:04;;;;;;;20.40;13.13;;;;;;;;;;5023158;28;20263;-82
2021/03/01 00:19:30;;;;;;;21.88;13.90;;;;;;;;;;5016019;28;20025;-82
2021/03/01 00:21:55;;;;;;;25.08;14.48;;;;;;;;;;5014641;28;20026;-81
2021/03/01 00:24:20;;;;;;;25.40;13.90;;;;;;;;;;5002097;28;20432;-82
2021/03/01 00:26:45;;;;;;;25.35;14.32;;;;;;;;;;5016271;28;20425;-81
2021/03/01 00:29:11;;;;;;;24.20;14.50;;;;;;;;;;5016986;28;20045;-82
2021/03/01 00:31:36;;;;;;;23.75;14.57;;;;;;;;;;5013289;28;20287;-83
2021/03/01 00:34:01;;;;;;;23.77;14.50;;;;;;;;;;5003332;28;20058;-83
2021/03/01 00:36:26;;;;;;;24.20;14.20;;;;;;;;;;5014451;28;20045;-83
2021/03/01 00:38:52;;;;;;;22.92;15.57;;;;;;;;;;4996998;28;20267;-82
2021/03/01 00:41:17;;;;;;;21.70;13.80;;;;;;;;;;5009294;28;20216;-83
2021/03/01 00:43:42;;;;;;;23.08;13.73;;;;;;;;;;5008844;28;20116;-82
2021/03/01 00:46:08;;;;;;;20.27;14.10;;;;;;;;;;5013881;28;20033;-82
2021/03/01 00:48:33;;;;;;;21.80;14.60;;;;;;;;;;5013631;28;20397;-82
2021/03/01 00:50:58;;;;;;;20.05;14.18;;;;;;;;;;5013910;28;20282;-82
2021/03/01 00:53:24;;;;;;;21.55;14.80;;;;;;;;;;5006823;28;20026;-82
2021/03/01 00:55:50;;;;;;;19.80;14.50;;;;;;;;;;4998051;28;20026;-82
2021/03/01 00:58:15;;;;;;;25.00;13.73;;;;;;;;;;4992964;28;20025;-82
2021/03/01 01:00:40;;;;;;;24.13;16.05;;;;;;;;;;5011684;28;20121;-81
2021/03/01 01:03:05;;;;;;;25.75;14.77;;;;;;;;;;5008284;28;20014;-82
2021/03/01 01:05:31;;;;;;;22.60;14.23;;;;;;;;;;5038072;28;20043;-82
2021/03/01 01:07:56;;;;;;;23.20;14.30;;;;;;;;;;5019283;28;20334;-82
2021/03/01 01:10:21;;;;;;;22.27;13.70;;;;;;;;;;5020205;28;20037;-81
2021/03/01 01:12:46;;;;;;;22.00;14.77;;;;;;;;;;4999651;28;20085;-82
2021/03/01 01:15:11;;;;;;;21.65;15.52;;;;;;;;;;5013791;28;20251;-82
2021/03/01 01:17:37;;;;;;;22.30;15.13;;;;;;;;;;4996205;28;20041;-82
2021/03/01 01:20:09;;;;;;;24.87;14.77;;;;;;;;;;5009374;28;20026;-82
2021/03/01 01:22:35;;;;;;;31.35;16.65;;;;;;;;;;5011213;28;20582;-80
2021/03/01 01:25:00;;;;;;;27.20;15.63;;;;;;;;;;4996478;28;20124;-81
2021/03/01 01:27:25;;;;;;;22.35;15.95;;;;;;;;;;5014140;28;20109;-81
2021/03/01 01:29:50;;;;;;;27.30;15.77;;;;;;;;;;5000226;28;20018;-83
2021/03/01 01:32:15;;;;;;;23.73;14.20;;;;;;;;;;5014191;28;20287;-81
2021/03/01 01:34:40;;;;;;;38.00;14.80;;;;;;;;;;5013954;28;20065;-81
2021/03/01 01:37:06;;;;;;;38.55;15.38;;;;;;;;;;4997343;28;20162;-82
2021/03/01 01:39:31;;;;;;;49.47;16.57;;;;;;;;;;4997811;28;20022;-81
2021/03/01 01:41:56;;;;;;;35.17;16.57;;;;;;;;;;5014554;28;20405;-81
2021/03/01 01:44:21;;;;;;;36.57;18.27;;;;;;;;;;5012201;28;20474;-81
2021/03/01 01:46:46;;;;;;;38.43;17.37;;;;;;;;;;5014116;28;20306;-82
2021/03/01 01:49:11;;;;;;;30.33;18.07;;;;;;;;;;5015902;28;20381;-82
2021/03/01 01:51:37;;;;;;;40.57;19.87;;;;;;;;;;4998879;28;20014;-82
2021/03/01 01:54:02;;;;;;;45.90;16.03;;;;;;;;;;5002701;28;20026;-82
2021/03/01 01:56:27;;;;;;;33.25;16.75;;;;;;;;;;4999955;28;21061;-82
2021/03/01 01:58:53;;;;;;;37.63;19.02;;;;;;;;;;4997698;28;20018;-84
2021/03/01 02:01:18;;;;;;;35.10;17.85;;;;;;;;;;4981825;28;20181;-83
2021/03/01 02:03:46;;;;;;;28.95;18.02;;;;;;;;;;4999959;28;20014;-83
2021/03/01 02:06:17;;;;;;;27.90;17.75;;;;;;;;;;5016041;28;20022;-81
2021/03/01 02:08:48;;;;;;;27.83;17.42;;;;;;;;;;5016375;28;20026;-82
2021/03/01 02:11:18;;;;;;;35.15;19.38;;;;;;;;;;5018487;28;20512;-82
2021/03/01 02:13:45;;;;;;;30.60;19.58;;;;;;;;;;5004388;28;20030;-82
2021/03/01 02:16:20;;;;;;;33.83;19.40;;;;;;;;;;5016491;28;20030;-82
2021/03/01 02:18:45;;;;;;;35.92;20.15;;;;;;;;;;5018338;28;20049;-84
2021/03/01 02:21:11;;;;;;;36.80;20.20;;;;;;;;;;4999065;28;20064;-84
2021/03/01 02:23:47;;;;;;;38.00;21.98;;;;;;;;;;5020290;28;20077;-84
2021/03/01 02:26:12;;;;;;;36.03;21.02;;;;;;;;;;5033986;28;20026;-84
2021/03/01 02:28:41;;;;;;;38.22;22.40;;;;;;;;;;5002818;28;20113;-82
2021/03/01 02:31:07;;;;;;;35.70;20.83;;;;;;;;;;4999132;28;20021;-82
2021/03/01 02:33:36;;;;;;;38.28;21.40;;;;;;;;;;5000120;28;20014;-82
2021/03/01 02:36:07;;;;;;;37.38;22.38;;;;;;;;;;4992394;28;20607;-82
2021/03/01 02:38:33;;;;;;;42.58;23.73;;;;;;;;;;5017648;28;20013;-81
2021/03/01 02:40:58;;;;;;;40.72;23.02;;;;;;;;;;4999482;28;20033;-82
2021/03/01 02:43:24;;;;;;;42.88;23.13;;;;;;;;;;5016182;28;20034;-82
2021/03/01 02:45:50;;;;;;;41.10;22.45;;;;;;;;;;4995327;28;20030;-82
2021/03/01 02:48:16;;;;;;;41.53;22.92;;;;;;;;;;5015922;28;20117;-82
2021/03/01 02:50:44;;;;;;;39.55;23.60;;;;;;;;;;5022147;28;20472;-82
2021/03/01 02:53:10;;;;;;;44.75;23.83;;;;;;;;;;5022160;28;20029;-82
2021/03/01 02:55:36;;;;;;;42.35;22.75;;;;;;;;;;5018618;28;20084;-82
2021/03/01 02:58:01;;;;;;;40.78;22.67;;;;;;;;;;5009576;28;20053;-82
2021/03/01 03:00:26;;;;;;;36.85;20.88;;;;;;;;;;5015385;28;20670;-83
2021/03/01 03:02:52;;;;;;;36.70;23.23;;;;;;;;;;5005072;28;20029;-83
2021/03/01 03:05:18;;;;;;;37.85;22.13;;;;;;;;;;5002275;28;20124;-83
2021/03/01 03:07:45;;;;;;;39.35;21.52;;;;;;;;;;5008799;28;20060;-83
2021/03/01 03:10:12;;;;;;;36.38;21.05;;;;;;;;;;5006866;28;20025;-83
2021/03/01 03:12:39;;;;;;;39.67;20.38;;;;;;;;;;4998291;28;20108;-83
2021/03/01 03:15:04;;;;;;;34.00;20.77;;;;;;;;;;5001937;28;20041;-83
2021/03/01 03:17:32;;;;;;;34.72;19.42;;;;;;;;;;4999748;28;20495;-83
2021/03/01 03:19:57;;;;;;;32.88;20.88;;;;;;;;;;5012985;28;20018;-83
2021/03/01 03:22:22;;;;;;;35.87;20.83;;;;;;;;;;5025536;28;20022;-83
2021/03/01 03:24:47;;;;;;;37.25;21.10;;;;;;;;;;5015972;28;20243;-83
2021/03/01 03:27:12;;;;;;;36.55;20.17;;;;;;;;;;5015973;28;20060;-83
2021/03/01 03:29:38;;;;;;;35.50;20.73;;;;;;;;;;5002851;28;20022;-83
2021/03/01 03:32:03;;;;;;;37.13;20.70;;;;;;;;;;5008264;28;20278;-82
2021/03/01 03:34:28;;;;;;;33.90;20.00;;;;;;;;;;5018299;28;20025;-83
2021/03/01 03:37:01;;;;;;;35.88;20.67;;;;;;;;;;4999496;28;20751;-83
2021/03/01 03:39:27;;;;;;;39.05;20.25;;;;;;;;;;5004328;28;20014;-83
2021/03/01 03:41:52;;;;;;;38.53;19.95;;;;;;;;;;5001545;28;20056;-82
2021/03/01 03:44:20;;;;;;;33.47;19.55;;;;;;;;;;5021539;28;20037;-82
2021/03/01 03:46:45;;;;;;;31.48;18.88;;;;;;;;;;5024944;28;20030;-83
2021/03/01 03:49:13;;;;;;;32.08;18.77;;;;;;;;;;5035599;28;20057;-82
2021/03/01 03:51:40;;;;;;;40.85;20.13;;;;;;;;;;5031465;28;20044;-82
2021/03/01 03:54:08;;;;;;;35.28;19.40;;;;;;;;;;5020624;28;20014;-83
2021/03/01 03:56:35;;;;;;;41.45;21.55;;;;;;;;;;5014252;28;20409;-83
2021/03/01 03:59:05;;;;;;;37.45;21.33;;;;;;;;;;5014244;28;20421;-82
2021/03/01 04:01:32;;;;;;;42.15;20.10;;;;;;;;;;5015484;28;20029;-82
2021/03/01 04:03:59;;;;;;;41.40;22.25;;;;;;;;;;5024606;28;20068;-83
2021/03/01 04:06:26;;;;;;;45.95;20.80;;;;;;;;;;5016730;28;20032;-83
2021/03/01 04:08:53;;;;;;;41.55;19.95;;;;;;;;;;5016370;28;20083;-82
2021/03/01 04:11:22;;;;;;;44.05;21.45;;;;;;;;;;5014058;28;20121;-83
2021/03/01 04:13:50;;;;;;;40.47;21.38;;;;;;;;;;5023928;28;20033;-83
2021/03/01 04:16:15;;;;;;;43.13;21.40;;;;;;;;;;5014156;28;20118;-83
2021/03/01 04:18:41;;;;;;;39.08;21.90;;;;;;;;;;5015344;28;20061;-83
2021/03/01 04:21:10;;;;;;;49.47;22.45;;;;;;;;;;5016099;28;20045;-83
2021/03/01 04:23:36;;;;;;;51.03;23.13;;;;;;;;;;5023739;28;20040;-83
2021/03/01 04:26:01;;;;;;;45.88;22.27;;;;;;;;;;5012569;28;20022;-82
2021/03/01 04:28:28;;;;;;;49.65;23.45;;;;;;;;;;5014051;28;20021;-82
2021/03/01 04:30:54;;;;;;;47.35;23.25;;;;;;;;;;5013828;28;20631;-82
2021/03/01 04:33:20;;;;;;;47.63;23.02;;;;;;;;;;5016641;28;20033;-82
2021/03/01 04:35:47;;;;;;;49.30;22.38;;;;;;;;;;5013087;28;20026;-83
2021/03/01 04:38:12;;;;;;;50.67;23.83;;;;;;;;;;5013999;28;20436;-83
2021/03/01 04:40:37;;;;;;;46.60;23.60;;;;;;;;;;5014733;28;20801;-83
2021/03/01 04:43:03;;;;;;;44.47;21.93;;;;;;;;;;5013824;28;20056;-83
2021/03/01 04:45:29;;;;;;;45.35;22.33;;;;;;;;;;5012564;28;20441;-81
2021/03/01 04:47:55;;;;;;;43.22;22.63;;;;;;;;;;5012925;28;20076;-82
2021/03/01 04:50:23;;;;;;;46.60;22.73;;;;;;;;;;5014215;28;20088;-82
2021/03/01 04:52:48;;;;;;;43.88;22.58;;;;;;;;;;5013295;28;20032;-82
2021/03/01 04:55:14;;;;;;;42.92;21.73;;;;;;;;;;5015744;28;20042;-82
2021/03/01 04:57:39;;;;;;;44.25;23.17;;;;;;;;;;5022856;28;20091;-82
2021/03/01 05:00:06;;;;;;;44.38;23.75;;;;;;;;;;5031467;28;20006;-82
2021/03/01 05:02:31;;;;;;;43.60;23.42;;;;;;;;;;5025399;28;20022;-82
2021/03/01 05:04:59;;;;;;;45.40;23.50;;;;;;;;;;5012270;28;20028;-82
2021/03/01 05:07:27;;;;;;;43.35;23.05;;;;;;;;;;5025200;28;20026;-82
2021/03/01 05:09:56;;;;;;;43.10;22.95;;;;;;;;;;5011467;28;20014;-82
2021/03/01 05:12:21;;;;;;;44.80;22.50;;;;;;;;;;5020654;28;20025;-82
2021/03/01 05:14:46;;;;;;;47.23;24.57;;;;;;;;;;5015098;28;20026;-82
2021/03/01 05:17:12;;;;;;;54.37;24.20;;;;;;;;;;5013794;28;20263;-82
2021/03/01 05:19:37;;;;;;;50.40;23.47;;;;;;;;;;5011367;28;20130;-82
2021/03/01 05:22:02;;;;;;;53.53;23.37;;;;;;;;;;5014394;28;20251;-83
2021/03/01 05:24:27;;;;;;;44.00;24.55;;;;;;;;;;5014211;28;20295;-83
2021/03/01 05:26:53;;;;;;;50.22;23.55;;;;;;;;;;5018172;28;20493;-83
2021/03/01 05:29:18;;;;;;;51.53;24.20;;;;;;;;;;5017779;28;20026;-83
2021/03/01 05:31:44;;;;;;;48.65;22.67;;;;;;;;;;5018615;28;20386;-83
2021/03/01 05:34:10;;;;;;;47.55;24.52;;;;;;;;;;5013441;28;20117;-84
2021/03/01 05:36:38;;;;;;;47.03;23.70;;;;;;;;;;5001566;28;20053;-83
2021/03/01 05:39:04;;;;;;;41.95;22.38;;;;;;;;;;5019989;28;20466;-83
2021/03/01 05:41:31;;;;;;;50.17;24.60;;;;;;;;;;5021065;28;20029;-82
2021/03/01 05:43:56;;;;;;;45.35;23.52;;;;;;;;;;5018308;28;20026;-82
2021/03/01 05:46:21;;;;;;;51.67;26.00;;;;;;;;;;5016831;28;20072;-82
2021/03/01 05:48:50;;;;;;;47.08;25.30;;;;;;;;;;5007716;28;20060;-84
2021/03/01 05:51:15;;;;;;;49.08;25.10;;;;;;;;;;5017491;28;20026;-84
2021/03/01 05:53:41;;;;;;;46.45;24.17;;;;;;;;;;5012415;28;20029;-84
2021/03/01 05:56:07;;;;;;;48.03;23.90;;;;;;;;;;5022530;28;20033;-84
2021/03/01 05:58:34;;;;;;;51.20;25.63;;;;;;;;;;5020164;28;20034;-82
2021/03/01 06:01:00;;;;;;;45.05;25.05;;;;;;;;;;5016316;28;20044;-81
2021/03/01 06:03:27;;;;;;;40.90;22.27;;;;;;;;;;5001225;28;20108;-83
2021/03/01 06:05:53;;;;;;;43.08;23.77;;;;;;;;;;5018280;28;20030;-82
2021/03/01 06:08:18;;;;;;;46.45;24.65;;;;;;;;;;5009688;28;20390;-82
2021/03/01 06:10:44;;;;;;;46.35;24.80;;;;;;;;;;5017336;28;20113;-83
2021/03/01 06:13:09;;;;;;;50.58;23.40;;;;;;;;;;5000158;28;20029;-85
2021/03/01 06:15:36;;;;;;;44.03;24.50;;;;;;;;;;5002126;28;20030;-84
2021/03/01 06:18:05;;;;;;;45.70;23.33;;;;;;;;;;5019660;28;20525;-84
2021/03/01 06:20:31;;;;;;;49.13;25.45;;;;;;;;;;5012556;28;20045;-84
2021/03/01 06:22:57;;;;;;;48.33;25.35;;;;;;;;;;5000555;28;20026;-84
2021/03/01 06:25:22;;;;;;;48.70;24.58;;;;;;;;;;5013612;28;20042;-85
2021/03/01 06:27:54;;;;;;;53.67;25.17;;;;;;;;;;4998278;28;20029;-85
2021/03/01 06:30:24;;;;;;;51.40;25.73;;;;;;;;;;5010758;28;20034;-85
2021/03/01 06:33:12;;;;;;;53.78;26.95;;;;;;;;;;5004191;28;20026;-82
2021/03/01 06:35:40;;;;;;;58.47;27.15;;;;;;;;;;5030422;28;20049;-82
2021/03/01 06:38:34;;;;;;;49.40;25.90;;;;;;;;;;5016878;28;20018;-83
2021/03/01 06:41:07;;;;;;;49.30;25.67;;;;;;;;;;4976092;28;20031;-83
2021/03/01 06:43:33;;;;;;;53.88;26.27;;;;;;;;;;4944391;28;20043;-83
2021/03/01 06:46:07;;;;;;;52.83;27.02;;;;;;;;;;4954347;28;20065;-83
2021/03/01 06:48:32;;;;;;;51.83;25.60;;;;;;;;;;4964856;28;20096;-83
2021/03/01 06:50:57;;;;;;;46.92;24.95;;;;;;;;;;4955594;29;20043;-83
2021/03/01 06:53:23;;;;;;;47.83;24.57;;;;;;;;;;4955415;28;20020;-83
2021/03/01 06:56:20;;;;;;;50.67;25.70;;;;;;;;;;4935197;29;20274;-83
2021/03/01 06:58:46;;;;;;;44.75;24.02;;;;;;;;;;4882801;29;20045;-83
2021/03/01 07:01:19;;;;;;;46.55;24.80;;;;;;;;;;4883901;29;20037;-83
2021/03/01 07:03:45;;;;;;;42.95;23.55;;;;;;;;;;4869749;29;20029;-83
2021/03/01 07:06:12;;;;;;;45.35;24.17;;;;;;;;;;4882201;29;20036;-82
2021/03/01 07:08:45;;;;;;;48.53;24.23;;;;;;;;;;4887992;29;20048;-83
2021/03/01 07:11:31;;;;;;;49.33;25.67;;;;;;;;;;4887273;29;20095;-83
2021/03/01 07:13:59;;;;;;;49.90;24.65;;;;;;;;;;4867809;29;20041;-83
2021/03/01 07:16:25;;;;;;;52.13;25.75;;;;;;;;;;4876013;29;20021;-83
2021/03/01 07:18:53;;;;;;;55.95;26.02;;;;;;;;;;4917226;29;20745;-83
2021/03/01 07:21:19;;;;;;;51.40;24.77;;;;;;;;;;4914738;29;20111;-82
2021/03/01 07:23:46;;;;;;;51.50;27.00;;;;;;;;;;4925376;29;20031;-82
2021/03/01 07:26:12;;;;;;;50.80;25.48;;;;;;;;;;4905154;29;20039;-82
2021/03/01 07:28:42;;;;;;;53.20;25.23;;;;;;;;;;4912941;29;20393;-82
2021/03/01 07:31:08;;;;;;;60.78;26.85;;;;;;;;;;4921324;29;20034;-82
2021/03/01 07:33:34;;;;;;;51.00;25.73;;;;;;;;;;4936101;28;20034;-82
2021/03/01 07:36:00;;;;;;;58.93;26.33;;;;;;;;;;5017855;28;20014;-82
2021/03/01 07:38:25;;;;;;;46.00;24.10;;;;;;;;;;5014686;28;20271;-82
2021/03/01 07:40:50;;;;;;;46.97;24.80;;;;;;;;;;5018243;28;20026;-83
2021/03/01 07:43:17;;;;;;;48.97;25.60;;;;;;;;;;5000625;28;20033;-81
2021/03/01 07:45:43;;;;;;;48.85;24.50;;;;;;;;;;5016168;28;20034;-82
2021/03/01 07:48:14;;;;;;;50.35;24.98;;;;;;;;;;5015074;28;20504;-81
2021/03/01 07:50:42;;;;;;;49.92;24.40;;;;;;;;;;5015623;28;20033;-83
2021/03/01 07:53:27;;;;;;;47.13;24.45;;;;;;;;;;5014795;28;20026;-82
2021/03/01 07:55:52;;;;;;;48.00;25.00;;;;;;;;;;5007813;28;20029;-82
2021/03/01 07:58:18;;;;;;;47.83;26.25;;;;;;;;;;5015912;28;20030;-82
2021/03/01 08:00:43;;;;;;;47.65;24.40;;;;;;;;;;4999125;28;20113;-83
2021/03/01 08:03:27;;;;;;;53.53;25.10;;;;;;;;;;5014661;28;20070;-83
2021/03/01 08:05:53;;;;;;;47.63;22.98;;;;;;;;;;4996566;28;20294;-82
2021/03/01 08:08:44;;;;;;;51.03;26.13;;;;;;;;;;5017651;28;20022;-82
2021/03/01 08:11:10;;;;;;;51.35;25.23;;;;;;;;;;4993204;28;20037;-82
2021/03/01 08:13:35;;;;;;;48.72;24.90;;;;;;;;;;5015589;28;20017;-82
2021/03/01 08:16:21;;;;;;;50.70;25.50;;;;;;;;;;5039233;28;20013;-82
2021/03/01 08:18:50;;;;;;;46.13;22.70;;;;;;;;;;5021761;28;20259;-82
2021/03/01 08:21:15;;;;;;;48.33;25.02;;;;;;;;;;5021470;28;20041;-82
2021/03/01 08:23:40;;;;;;;47.47;24.03;;;;;;;;;;4998591;28;20021;-82
2021/03/01 08:26:06;;;;;;;41.27;23.40;;;;;;;;;;5018623;28;20330;-82
2021/03/01 08:28:32;;;;;;;43.55;23.05;;;;;;;;;;5001153;28;20026;-82
2021/03/01 08:31:06;;;;;;;39.63;22.42;;;;;;;;;;4999464;28;20022;-82
2021/03/01 08:33:32;;;;;;;43.85;22.70;;;;;;;;;;4999563;28;20013;-81
2021/03/01 08:36:29;;;;;;;43.22;22.75;;;;;;;;;;5007191;28;20064;-81
2021/03/01 08:39:34;;;;;;;120.18;27.02;;;;;;;;;;4964482;28;20023;-85
2021/03/01 08:48:24;;;;;;;43.47;23.55;;;;;;;;;;4952042;28;20065;-81
2021/03/01 08:51:11;;;;;;;45.72;21.42;;;;;;;;;;4958073;28;20043;-87
2021/03/01 08:53:45;;;;;;;38.83;22.15;;;;;;;;;;4971175;28;20126;-82
2021/03/01 09:01:51;;;;;;;41.53;22.60;;;;;;;;;;2864484;23;20084;-83
2021/03/01 09:04:16;;;;;;;41.88;22.42;;;;;;;;;;5013241;28;20034;-82
2021/03/01 09:23:06;;;;;;;41.72;21.83;;;;;;;;;;4387475;26;20048;-83
2021/03/01 09:26:07;;;;;;;41.95;23.08;;;;;;;;;;5056564;28;20087;-82
2021/03/01 09:28:34;;;;;;;43.15;21.75;;;;;;;;;;5027488;28;20043;-83
2021/03/01 09:31:09;;;;;;;44.33;23.58;;;;;;;;;;5058968;28;20028;-83
2021/03/01 09:34:07;;;;;;;44.58;23.50;;;;;;;;;;5034325;28;20466;-83
2021/03/01 09:36:55;;;;;;;46.17;22.98;;;;;;;;;;5016549;28;20096;-83
2021/03/01 10:14:55;;;;;;;44.85;23.75;;;;;;;;;;4860233;22;20102;-82
2021/03/01 10:17:27;;;;;;;42.20;22.75;;;;;;;;;;4967635;28;20027;-83
2021/03/01 10:31:34;;;;;;;37.70;21.73;;;;;;;;;;5029784;23;20053;-84
2021/03/01 10:34:31;;;;;;;37.03;20.17;;;;;;;;;;5019747;28;20033;-83
2021/03/01 10:36:58;;;;;;;36.53;19.40;;;;;;;;;;4972450;28;20138;-80
2021/03/01 10:39:23;;;;;;;33.22;18.67;;;;;;;;;;4973284;28;20027;-80
2021/03/01 10:41:50;;;;;;;33.00;17.48;;;;;;;;;;4971078;28;20042;-81
2021/03/01 10:44:16;;;;;;;32.72;16.92;;;;;;;;;;4968279;28;20097;-79
2021/03/01 10:46:48;;;;;;;32.53;17.73;;;;;;;;;;4964096;28;20054;-80
2021/03/01 10:49:16;;;;;;;30.98;18.00;;;;;;;;;;4971723;28;20034;-79
2021/03/01 10:51:41;;;;;;;30.83;18.55;;;;;;;;;;4974302;28;20108;-81
2021/03/01 10:54:06;;;;;;;35.78;18.20;;;;;;;;;;4971395;28;20827;-82
2021/03/01 10:56:54;;;;;;;34.05;18.50;;;;;;;;;;4959326;28;20031;-84
2021/03/01 10:59:19;;;;;;;33.80;18.88;;;;;;;;;;4941938;29;20046;-81
2021/03/01 11:01:45;;;;;;;33.45;18.90;;;;;;;;;;4951728;28;20032;-82
2021/03/01 11:04:53;;;;;;;30.63;17.95;;;;;;;;;;4952803;29;20744;-82
2021/03/01 11:07:33;;;;;;;33.60;18.50;;;;;;;;;;4954881;29;20733;-84
2021/03/01 11:10:13;;;;;;;30.38;18.23;;;;;;;;;;4924184;29;20033;-82
2021/03/01 11:12:40;;;;;;;28.70;17.15;;;;;;;;;;4982661;28;20495;-83
2021/03/01 11:15:31;;;;;;;24.70;15.60;;;;;;;;;;5016415;28;20053;-84
2021/03/01 11:18:48;;;;;;;29.98;17.38;;;;;;;;;;4999055;28;20022;-84
2021/03/01 11:41:26;;;;;;;30.50;17.08;;;;;;;;;;4995811;28;20065;-83
2021/03/01 11:43:58;;;;;;;26.85;16.15;;;;;;;;;;4975229;28;20030;-79
2021/03/01 11:46:23;;;;;;;31.23;17.35;;;;;;;;;;5002344;28;20061;-81
2021/03/01 11:48:49;;;;;;;29.88;15.35;;;;;;;;;;4997791;28;20038;-79
2021/03/01 11:51:34;;;;;;;24.95;16.38;;;;;;;;;;4987996;28;20022;-82
2021/03/01 11:54:19;;;;;;;28.05;17.23;;;;;;;;;;5001496;28;20053;-79
2021/03/01 11:56:46;;;;;;;29.13;17.17;;;;;;;;;;5005289;28;20029;-82
2021/03/01 11:59:51;;;;;;;28.98;16.48;;;;;;;;;;5311802;23;20070;-83
2021/03/01 12:13:22;;;;;;;30.35;17.83;;;;;;;;;;5047689;28;20049;-80
2021/03/01 12:15:47;;;;;;;29.35;17.75;;;;;;;;;;5052270;28;20028;-81
2021/03/01 12:18:12;;;;;;;28.35;17.75;;;;;;;;;;5039448;28;20024;-82
2021/03/01 12:20:38;;;;;;;27.50;17.83;;;;;;;;;;5021694;28;20017;-82
2021/03/01 12:23:03;;;;;;;28.42;18.95;;;;;;;;;;5014619;28;20025;-83
2021/03/01 12:25:28;;;;;;;28.90;17.70;;;;;;;;;;5018763;28;20393;-81
2021/03/01 12:27:54;;;;;;;27.37;17.10;;;;;;;;;;5036027;28;20342;-81
2021/03/01 12:30:19;;;;;;;34.00;17.97;;;;;;;;;;5045870;28;20716;-82
2021/03/01 12:32:44;;;;;;;29.65;16.73;;;;;;;;;;5019223;28;20361;-82
2021/03/01 12:35:10;;;;;;;29.93;17.47;;;;;;;;;;5032599;28;20120;-79
2021/03/01 12:37:41;;;;;;;28.65;17.38;;;;;;;;;;5032928;28;20342;-81
2021/03/01 12:40:26;;;;;;;31.52;18.00;;;;;;;;;;5037505;28;20052;-83
2021/03/01 12:42:52;;;;;;;27.67;16.30;;;;;;;;;;5033374;28;20018;-82
2021/03/01 12:45:18;;;;;;;26.15;15.63;;;;;;;;;;5036240;28;20025;-82
2021/03/01 12:47:43;;;;;;;23.50;15.68;;;;;;;;;;5032558;28;20330;-82
2021/03/01 12:50:44;;;;;;;23.85;16.50;;;;;;;;;;5041927;28;20029;-83
2021/03/01 12:53:29;;;;;;;25.13;15.25;;;;;;;;;;5006851;28;20041;-84
2021/03/01 12:55:55;;;;;;;27.43;16.67;;;;;;;;;;5038175;28;20039;-81
2021/03/01 12:58:20;;;;;;;28.67;15.35;;;;;;;;;;5030881;28;20334;-81
2021/03/01 13:00:47;;;;;;;25.07;17.23;;;;;;;;;;5037527;28;20101;-85
2021/03/01 13:03:12;;;;;;;25.15;16.10;;;;;;;;;;5024357;28;20263;-84
2021/03/01 13:05:37;;;;;;;23.50;15.60;;;;;;;;;;5033509;28;20029;-81
2021/03/01 13:08:06;;;;;;;28.20;17.38;;;;;;;;;;5005810;28;20033;-82
2021/03/01 13:10:35;;;;;;;30.70;17.73;;;;;;;;;;5035791;28;20021;-83
2021/03/01 13:13:13;;;;;;;31.45;17.85;;;;;;;;;;5020663;28;20045;-83
2021/03/01 13:15:38;;;;;;;30.60;17.60;;;;;;;;;;5011747;28;20057;-81
2021/03/01 13:18:03;;;;;;;26.27;15.43;;;;;;;;;;5034388;28;20053;-79
2021/03/01 13:20:28;;;;;;;27.17;15.30;;;;;;;;;;5030056;28;20037;-80
2021/03/01 13:22:54;;;;;;;25.07;14.87;;;;;;;;;;5011162;28;20040;-80
2021/03/01 13:26:04;;;;;;;22.67;15.73;;;;;;;;;;5016755;28;20286;-82
2021/03/01 13:28:29;;;;;;;21.50;15.57;;;;;;;;;;5015426;28;20024;-81
2021/03/01 13:30:55;;;;;;;22.75;14.68;;;;;;;;;;5016760;28;20030;-79
2021/03/01 13:33:23;;;;;;;22.40;15.20;;;;;;;;;;5035606;28;20136;-81
2021/03/01 13:35:50;;;;;;;32.80;14.82;;;;;;;;;;5016703;28;20079;-82
2021/03/01 13:38:17;;;;;;;20.83;14.82;;;;;;;;;;5035961;28;20014;-83
2021/03/01 13:40:42;;;;;;;27.77;16.10;;;;;;;;;;5023112;28;20021;-84
2021/03/01 13:43:07;;;;;;;21.60;15.57;;;;;;;;;;5028036;28;20089;-84
2021/03/01 13:45:33;;;;;;;23.27;15.67;;;;;;;;;;5044042;28;20028;-83
2021/03/01 13:47:58;;;;;;;24.25;16.42;;;;;;;;;;5042407;28;20028;-83
2021/03/01 13:50:23;;;;;;;22.50;15.88;;;;;;;;;;5039546;28;20032;-82
2021/03/01 13:52:50;;;;;;;20.63;15.98;;;;;;;;;;5040100;28;20107;-83
2021/03/01 13:55:17;;;;;;;27.55;15.73;;;;;;;;;;5023799;28;20049;-84
2021/03/01 13:57:42;;;;;;;23.00;15.50;;;;;;;;;;5039756;28;20025;-84
2021/03/01 14:00:26;;;;;;;27.80;15.83;;;;;;;;;;5041919;28;20029;-84
2021/03/01 14:03:06;;;;;;;21.73;15.65;;;;;;;;;;5042032;28;20259;-86
2021/03/01 14:05:31;;;;;;;21.23;15.00;;;;;;;;;;5007682;28;20038;-85
2021/03/01 14:07:58;;;;;;;21.23;14.95;;;;;;;;;;5025608;28;20079;-84
2021/03/01 14:10:25;;;;;;;23.33;14.77;;;;;;;;;;5031425;28;20041;-84
2021/03/01 14:12:50;;;;;;;23.63;15.50;;;;;;;;;;5044391;28;20318;-84
2021/03/01 14:15:17;;;;;;;22.23;14.90;;;;;;;;;;5034019;28;20026;-85
2021/03/01 14:17:42;;;;;;;21.88;14.98;;;;;;;;;;5026124;28;20147;-85
2021/03/01 14:20:26;;;;;;;23.10;15.70;;;;;;;;;;5031358;28;20010;-86
2021/03/01 14:23:17;;;;;;;21.58;14.90;;;;;;;;;;5052563;28;20021;-84
2021/03/01 14:51:35;;;;;;;18.95;14.75;;;;;;;;;;5000737;28;20094;-84
2021/03/01 14:54:00;;;;;;;20.73;14.27;;;;;;;;;;4963008;28;20027;-85
2021/03/01 14:56:26;;;;;;;19.85;14.35;;;;;;;;;;4959993;28;20050;-84
2021/03/01 14:58:51;;;;;;;20.85;14.90;;;;;;;;;;4968181;28;20021;-84
2021/03/01 15:01:16;;;;;;;21.50;14.77;;;;;;;;;;4978254;28;20026;-84
2021/03/01 15:03:41;;;;;;;19.17;14.88;;;;;;;;;;4984619;28;20019;-83
2021/03/01 15:06:09;;;;;;;18.53;14.10;;;;;;;;;;4986850;28;20052;-84
2021/03/01 15:08:35;;;;;;;21.40;14.40;;;;;;;;;;4974781;28;20027;-84
2021/03/01 15:11:22;;;;;;;20.53;13.77;;;;;;;;;;4952586;29;20115;-84
2021/03/01 15:13:47;;;;;;;19.38;13.95;;;;;;;;;;4947377;28;20274;-83
2021/03/01 15:16:16;;;;;;;23.10;14.57;;;;;;;;;;4970999;28;20043;-85
2021/03/01 15:18:44;;;;;;;20.02;14.30;;;;;;;;;;4970363;28;20066;-84
2021/03/01 15:21:10;;;;;;;19.30;13.43;;;;;;;;;;4960736;29;20070;-84
2021/03/01 15:23:35;;;;;;;22.63;14.63;;;;;;;;;;4941784;29;20031;-84
2021/03/01 15:26:01;;;;;;;22.10;15.33;;;;;;;;;;4969709;28;20071;-84
2021/03/01 15:28:44;;;;;;;20.17;13.07;;;;;;;;;;4955497;28;20272;-85
2021/03/01 15:31:10;;;;;;;19.25;13.18;;;;;;;;;;4958912;28;20059;-85
2021/03/01 15:33:35;;;;;;;24.60;13.73;;;;;;;;;;4944255;29;20395;-85
2021/03/01 15:36:00;;;;;;;16.53;12.13;;;;;;;;;;4960805;28;20265;-85
2021/03/01 15:38:25;;;;;;;20.90;13.73;;;;;;;;;;4967831;28;20019;-85
2021/03/01 15:40:52;;;;;;;22.57;12.20;;;;;;;;;;4953512;28;20022;-84
2021/03/01 15:43:17;;;;;;;23.85;12.68;;;;;;;;;;4968490;28;20717;-85
2021/03/01 15:45:42;;;;;;;22.42;12.98;;;;;;;;;;4965670;28;20051;-83
2021/03/01 15:48:08;;;;;;;20.30;12.97;;;;;;;;;;5143816;23;20834;-85
2021/03/01 15:50:34;;;;;;;20.02;13.52;;;;;;;;;;4982087;28;20026;-84
2021/03/01 15:52:59;;;;;;;17.98;11.88;;;;;;;;;;4984260;28;20033;-84
2021/03/01 15:55:24;;;;;;;16.40;10.33;;;;;;;;;;5005838;28;20019;-84
2021/03/01 15:57:49;;;;;;;19.50;11.33;;;;;;;;;;5001489;28;20030;-85
2021/03/01 16:00:15;;;;;;;20.70;12.03;;;;;;;;;;4994422;28;20370;-83
2021/03/01 16:02:40;;;;;;;17.05;11.50;;;;;;;;;;4977640;28;20268;-84
2021/03/01 16:05:05;;;;;;;20.37;12.90;;;;;;;;;;4967041;28;20046;-85
2021/03/01 16:07:31;;;;;;;23.45;15.38;;;;;;;;;;4972155;28;20556;-85
2021/03/01 16:09:57;;;;;;;20.13;13.25;;;;;;;;;;4979598;28;20039;-85
2021/03/01 16:12:23;;;;;;;18.48;12.43;;;;;;;;;;4971164;28;20035;-84
2021/03/01 16:14:50;;;;;;;21.20;13.93;;;;;;;;;;4962737;28;20089;-84
2021/03/01 16:17:15;;;;;;;21.17;12.07;;;;;;;;;;4973012;28;20019;-84
2021/03/01 16:19:40;;;;;;;20.43;13.90;;;;;;;;;;4956369;28;20075;-83
2021/03/01 16:22:05;;;;;;;19.83;13.30;;;;;;;;;;4980391;28;20300;-84
2021/03/01 16:24:34;;;;;;;20.90;13.53;;;;;;;;;;4966396;28;20074;-84
2021/03/01 16:27:20;;;;;;;21.67;12.23;;;;;;;;;;4957037;28;20027;-83
2021/03/01 16:30:12;;;;;;;16.45;11.50;;;;;;;;;;4973106;28;20101;-84
2021/03/01 16:32:40;;;;;;;20.15;11.77;;;;;;;;;;4963023;28;20048;-83
2021/03/01 16:35:05;;;;;;;23.45;13.07;;;;;;;;;;4959815;28;20031;-83
2021/03/01 16:37:31;;;;;;;21.50;11.90;;;;;;;;;;4975823;28;20041;-84